Time;durP1;ratioP1;P1;durP2;ratioP2;P2;SDS_P1;SDS_P2;PMS_P1;PMS_P2;Temp;Humidity;BMP_temperature;BMP_pressure;BME280_temperature;BME280_humidity;BME280_pressure;Samples;Min_cycle;Max_cycle;Signal;HPM_P1;HPM_P2
2021/07/13 00:01:19;;;;;;;13.20;12.10;;;;;;;20.42;79.59;98659.09;5034322;28;20231;-89
2021/07/13 00:03:48;;;;;;;13.03;12.03;;;;;;;20.30;80.03;98647.06;5034993;28;20528;-88
2021/07/13 00:06:15;;;;;;;12.80;11.80;;;;;;;20.36;79.86;98660.31;5034471;28;20248;-89
2021/07/13 00:08:42;;;;;;;14.20;13.00;;;;;;;20.32;80.34;98670.19;5035101;28;20750;-88
2021/07/13 00:11:08;;;;;;;13.10;12.00;;;;;;;20.32;80.15;98664.75;5034784;28;20237;-88
2021/07/13 00:13:35;;;;;;;13.83;12.73;;;;;;;20.25;80.57;98658.09;5034941;28;20254;-89
2021/07/13 00:16:02;;;;;;;13.87;12.57;;;;;;;20.27;80.48;98673.00;5017966;28;20564;-89
2021/07/13 00:18:29;;;;;;;13.93;12.70;;;;;;;20.26;80.30;98676.81;5034857;28;20251;-90
2021/07/13 00:20:56;;;;;;;13.17;12.10;;;;;;;20.21;80.34;98671.47;5034564;28;20232;-87
2021/07/13 00:23:23;;;;;;;14.33;12.93;;;;;;;20.21;80.62;98683.16;5034710;28;20226;-89
2021/07/13 00:25:49;;;;;;;13.83;12.53;;;;;;;20.15;80.82;98676.25;5051360;28;20226;-88
2021/07/13 00:28:16;;;;;;;13.47;12.37;;;;;;;20.11;81.01;98679.88;5033831;28;20233;-89
2021/07/13 00:30:43;;;;;;;14.33;13.20;;;;;;;20.11;80.98;98680.66;5034567;28;20581;-88
2021/07/13 00:33:09;;;;;;;13.43;12.43;;;;;;;20.02;81.17;98673.53;5034377;28;20598;-89
2021/07/13 00:35:36;;;;;;;13.80;12.70;;;;;;;20.06;81.10;98683.47;5034206;28;20234;-88
2021/07/13 00:38:03;;;;;;;14.60;13.27;;;;;;;20.02;81.35;98673.53;5034095;28;20235;-89
2021/07/13 00:40:30;;;;;;;14.17;12.87;;;;;;;19.92;81.72;98673.75;5034561;28;20232;-89
2021/07/13 00:42:57;;;;;;;14.80;13.50;;;;;;;19.90;81.95;98671.34;5034635;28;20240;-89
2021/07/13 00:45:23;;;;;;;14.10;12.90;;;;;;;19.81;81.81;98659.56;5033928;28;20256;-89
2021/07/13 00:47:51;;;;;;;13.03;11.93;;;;;;;19.86;81.86;98667.63;5034416;28;20243;-89
2021/07/13 00:50:20;;;;;;;14.33;13.13;;;;;;;19.76;81.76;98657.75;5034217;28;20688;-88
2021/07/13 00:52:48;;;;;;;13.83;12.70;;;;;;;19.77;81.89;98667.53;5050763;28;20539;-89
2021/07/13 00:55:15;;;;;;;14.03;12.83;;;;;;;19.69;82.27;98653.84;5034011;28;20301;-89
2021/07/13 00:57:42;;;;;;;14.30;13.10;;;;;;;19.68;82.53;98652.22;5034525;28;20237;-89
2021/07/13 01:00:12;;;;;;;14.37;13.17;;;;;;;19.67;82.58;98659.56;5033962;28;20233;-89
2021/07/13 01:02:39;;;;;;;14.43;13.33;;;;;;;19.59;82.70;98654.03;5034258;28;20263;-89
2021/07/13 01:05:18;;;;;;;14.57;13.27;;;;;;;19.61;82.59;98665.38;5034219;28;20283;-89
2021/07/13 01:08:04;;;;;;;13.97;12.87;;;;;;;19.62;82.37;98665.09;5034401;28;20243;-88
2021/07/13 01:10:49;;;;;;;14.43;13.23;;;;;;;19.60;82.74;98663.78;5050378;28;20562;-89
2021/07/13 01:13:24;;;;;;;14.40;13.20;;;;;;;19.56;82.55;98665.50;5038243;28;20228;-89
2021/07/13 01:16:02;;;;;;;14.70;13.40;;;;;;;19.56;82.74;98668.22;5038104;28;20222;-89
2021/07/13 01:18:34;;;;;;;14.63;13.43;;;;;;;19.52;82.86;98664.47;5037721;28;20599;-89
2021/07/13 01:21:22;;;;;;;15.30;13.97;;;;;;;19.53;82.78;98675.06;5021838;28;20532;-90
2021/07/13 01:24:31;;;;;;;16.10;14.70;;;;;;;19.49;83.49;98668.63;5054872;28;20646;-89
2021/07/13 01:27:22;;;;;;;16.27;14.87;;;;;;;19.48;83.75;98671.63;5000711;28;20233;-90
2021/07/13 01:29:52;;;;;;;16.73;15.13;;;;;;;19.46;84.09;98668.41;5037688;28;20639;-89
2021/07/13 01:32:22;;;;;;;15.20;13.90;;;;;;;19.45;84.13;98659.47;5037771;28;20239;-88
2021/07/13 01:34:56;;;;;;;13.83;12.63;;;;;;;19.44;83.74;98657.03;5037413;28;20234;-90
2021/07/13 01:37:24;;;;;;;14.37;13.17;;;;;;;19.39;83.97;98646.25;5054617;28;20319;-88
2021/07/13 01:39:53;;;;;;;14.77;13.47;;;;;;;19.34;83.81;98637.09;5037487;28;20606;-90
2021/07/13 01:42:21;;;;;;;15.47;14.17;;;;;;;19.44;83.88;98646.19;5037130;28;20225;-89
2021/07/13 01:44:48;;;;;;;15.50;14.20;;;;;;;19.41;83.94;98636.66;5021292;28;20228;-89
2021/07/13 01:47:16;;;;;;;15.30;14.10;;;;;;;19.39;83.58;98630.75;5021113;28;20257;-89
2021/07/13 01:49:43;;;;;;;14.10;12.80;;;;;;;19.39;83.82;98638.09;5037412;28;20241;-89
2021/07/13 01:52:11;;;;;;;15.53;14.13;;;;;;;19.35;83.96;98629.75;5037164;28;20694;-88
2021/07/13 01:54:39;;;;;;;15.83;14.50;;;;;;;19.41;83.78;98644.03;5037869;28;20318;-89
2021/07/13 01:57:07;;;;;;;17.23;15.73;;;;;;;19.55;83.65;98628.59;5037762;28;20308;-90
2021/07/13 01:59:34;;;;;;;17.70;16.23;;;;;;;19.57;85.09;98632.59;5037420;28;20260;-89
2021/07/13 02:02:02;;;;;;;18.83;17.00;;;;;;;19.57;85.24;98629.88;5036656;28;20704;-88
2021/07/13 02:04:31;;;;;;;20.20;18.20;;;;;;;19.64;85.91;98632.19;5020668;28;20554;-90
2021/07/13 02:06:59;;;;;;;21.53;19.67;;;;;;;19.71;86.34;98619.00;5053661;28;20311;-89
2021/07/13 02:09:26;;;;;;;19.67;17.87;;;;;;;19.77;86.28;98615.88;5020595;28;20288;-89
2021/07/13 02:11:53;;;;;;;19.87;18.07;;;;;;;19.89;86.17;98625.41;5036868;28;20247;-89
2021/07/13 02:14:21;;;;;;;19.83;18.13;;;;;;;19.79;85.79;98608.22;5036465;28;20360;-90
2021/07/13 02:16:48;;;;;;;19.73;18.03;;;;;;;19.93;85.96;98629.13;5036892;28;20247;-89
2021/07/13 02:19:16;;;;;;;21.33;19.27;;;;;;;20.01;86.36;98628.44;5036622;28;20263;-90
2021/07/13 02:21:43;;;;;;;19.70;18.10;;;;;;;20.06;85.92;98631.03;5037056;28;20238;-88
2021/07/13 02:24:10;;;;;;;21.03;19.07;;;;;;;20.03;85.83;98620.75;5052285;28;20235;-88
2021/07/13 02:26:49;;;;;;;20.57;18.47;;;;;;;20.04;85.92;98631.34;5036997;28;20318;-89
2021/07/13 02:29:20;;;;;;;20.23;18.50;;;;;;;20.05;86.13;98619.38;5020412;28;20273;-90
2021/07/13 02:31:55;;;;;;;20.13;18.30;;;;;;;19.99;86.04;98620.56;5036603;28;20251;-89
2021/07/13 02:34:26;;;;;;;20.43;18.63;;;;;;;19.93;86.36;98624.50;5019965;28;20263;-89
2021/07/13 02:36:56;;;;;;;19.63;17.93;;;;;;;19.94;86.18;98631.56;5020417;28;20261;-89
2021/07/13 02:39:23;;;;;;;19.93;18.23;;;;;;;19.90;86.48;98624.31;5053299;28;20229;-89
2021/07/13 02:41:52;;;;;;;20.37;18.47;;;;;;;19.87;86.50;98622.22;5036742;28;20236;-90
2021/07/13 02:44:22;;;;;;;20.27;18.50;;;;;;;19.81;86.42;98612.56;5035876;28;20236;-89
2021/07/13 02:46:49;;;;;;;19.93;18.20;;;;;;;19.86;86.68;98615.16;5053031;28;20316;-90
2021/07/13 02:49:21;;;;;;;19.63;17.67;;;;;;;19.90;86.33;98614.25;5036102;28;20575;-89
2021/07/13 02:51:51;;;;;;;20.53;18.67;;;;;;;19.89;86.23;98611.81;5036321;28;20539;-89
2021/07/13 02:54:22;;;;;;;20.33;18.43;;;;;;;19.84;86.23;98607.31;5036454;28;20232;-89
2021/07/13 02:56:49;;;;;;;20.13;18.33;;;;;;;19.79;86.43;98601.97;5036346;28;20236;-89
2021/07/13 02:59:22;;;;;;;18.97;17.17;;;;;;;19.71;86.04;98599.97;5053074;28;20314;-90
2021/07/13 03:01:49;;;;;;;19.47;17.77;;;;;;;19.70;85.81;98609.22;5035888;28;20729;-88
2021/07/13 03:04:18;;;;;;;19.87;18.17;;;;;;;19.64;85.66;98599.59;5035650;28;20606;-89
2021/07/13 03:06:45;;;;;;;19.60;17.90;;;;;;;19.67;85.65;98599.78;5035839;28;20233;-89
2021/07/13 03:09:13;;;;;;;20.67;18.57;;;;;;;19.62;85.38;98590.94;5036211;28;20235;-89
2021/07/13 03:11:40;;;;;;;19.20;17.40;;;;;;;19.63;85.43;98604.22;5035607;28;20243;-89
2021/07/13 03:14:09;;;;;;;20.10;18.17;;;;;;;19.54;85.60;98591.66;5035312;28;20293;-89
2021/07/13 03:16:37;;;;;;;19.27;17.47;;;;;;;19.59;85.76;98602.41;5052021;28;20236;-90
2021/07/13 03:19:08;;;;;;;17.70;16.20;;;;;;;19.53;85.32;98603.63;5019866;28;20232;-88
2021/07/13 03:21:36;;;;;;;15.87;14.47;;;;;;;19.53;84.69;98619.91;5035546;28;20704;-89
2021/07/13 03:24:04;;;;;;;15.57;14.27;;;;;;;19.44;84.21;98606.25;5035435;28;20257;-90
2021/07/13 03:26:33;;;;;;;15.57;14.13;;;;;;;19.41;83.61;98608.72;5035698;28;20236;-87
2021/07/13 03:29:02;;;;;;;15.97;14.57;;;;;;;19.42;83.52;98607.59;5036022;28;20281;-89
2021/07/13 03:31:30;;;;;;;15.40;14.20;;;;;;;19.39;82.86;98609.03;5035589;28;20646;-89
2021/07/13 03:33:58;;;;;;;16.50;15.10;;;;;;;19.39;83.10;98610.94;5052022;28;20628;-89
2021/07/13 03:36:26;;;;;;;16.07;14.77;;;;;;;19.48;82.55;98609.16;5034849;28;20224;-89
2021/07/13 03:38:53;;;;;;;15.70;14.40;;;;;;;19.45;82.41;98605.13;5035366;28;20236;-88
2021/07/13 03:41:20;;;;;;;16.23;14.73;;;;;;;19.55;82.21;98612.28;5035527;28;20236;-89
2021/07/13 03:43:47;;;;;;;15.90;14.30;;;;;;;19.57;81.83;98604.63;5035104;28;20232;-89
2021/07/13 03:46:14;;;;;;;15.17;13.77;;;;;;;19.61;81.45;98597.47;5034690;28;20232;-89
2021/07/13 03:48:41;;;;;;;15.33;14.00;;;;;;;19.76;81.04;98599.88;5051780;28;20514;-88
2021/07/13 03:51:21;;;;;;;16.20;14.90;;;;;;;19.83;80.18;98594.03;5018599;28;20289;-88
2021/07/13 03:53:48;;;;;;;15.43;14.13;;;;;;;19.86;79.85;98587.97;5018751;28;20232;-89
2021/07/13 03:56:14;;;;;;;15.83;14.43;;;;;;;19.98;79.86;98589.06;5050932;28;20235;-88
2021/07/13 03:58:41;;;;;;;15.70;14.30;;;;;;;20.05;79.19;98578.56;5051620;28;20227;-89
2021/07/13 04:01:08;;;;;;;15.60;14.20;;;;;;;20.18;78.52;98579.63;5034899;28;20232;-89
2021/07/13 04:03:35;;;;;;;15.60;13.83;;;;;;;20.25;78.09;98571.06;5051528;28;20248;-89
2021/07/13 04:06:02;;;;;;;14.70;13.40;;;;;;;20.41;77.53;98580.47;5034319;28;20233;-88
2021/07/13 04:08:30;;;;;;;15.30;14.00;;;;;;;20.86;76.80;98584.78;5051619;28;20532;-89
2021/07/13 04:10:56;;;;;;;14.50;13.30;;;;;;;21.24;75.12;98592.53;5034679;28;20239;-89
2021/07/13 04:13:23;;;;;;;15.43;14.03;;;;;;;21.59;73.58;98582.56;5034729;28;20232;-88
2021/07/13 04:15:50;;;;;;;14.90;13.70;;;;;;;21.74;72.55;98585.63;5051491;28;20315;-88
2021/07/13 04:18:17;;;;;;;14.53;13.23;;;;;;;21.88;72.52;98582.81;5034787;28;20248;-89
2021/07/13 04:20:44;;;;;;;15.63;14.13;;;;;;;21.93;71.62;98583.44;5035182;28;20240;-87
2021/07/13 04:23:11;;;;;;;16.67;14.80;;;;;;;22.07;71.92;98585.25;5034958;28;20227;-87
2021/07/13 04:25:38;;;;;;;15.23;13.93;;;;;;;22.17;71.55;98590.38;5034799;28;20885;-89
2021/07/13 04:28:05;;;;;;;15.87;14.57;;;;;;;22.23;71.28;98589.91;5038902;28;20647;-89
2021/07/13 04:30:31;;;;;;;16.20;14.63;;;;;;;22.37;70.69;98590.53;5054933;28;20300;-88
2021/07/13 04:32:58;;;;;;;16.00;14.53;;;;;;;22.57;70.62;98594.56;5038179;28;20276;-89
2021/07/13 04:35:25;;;;;;;15.70;14.30;;;;;;;22.77;69.57;98587.63;5038285;28;20229;-89
2021/07/13 04:37:52;;;;;;;15.03;13.83;;;;;;;22.92;69.67;98578.13;5071509;28;20312;-88
2021/07/13 04:40:19;;;;;;;14.10;13.00;;;;;;;23.01;68.48;98573.44;5037539;28;20506;-88
2021/07/13 04:42:46;;;;;;;13.77;12.35;;;;;;;22.98;68.48;98571.38;5054444;28;20314;-89
2021/07/13 04:45:13;;;;;;;13.68;12.40;;;;;;;23.01;68.10;98576.97;5037923;28;20298;-91
2021/07/13 04:47:40;;;;;;;14.25;13.13;;;;;;;23.11;67.84;98584.00;5037055;28;20240;-92
2021/07/13 04:50:09;;;;;;;16.08;14.60;;;;;;;23.22;68.50;98583.34;5020987;28;20672;-91
2021/07/13 04:52:35;;;;;;;15.88;14.50;;;;;;;23.25;68.64;98579.13;5037442;28;20260;-91
2021/07/13 04:55:03;;;;;;;13.90;12.80;;;;;;;23.40;68.05;98575.88;5037432;28;20252;-90
2021/07/13 04:57:30;;;;;;;13.52;12.43;;;;;;;23.58;67.56;98576.59;5070624;28;20644;-88
2021/07/13 04:59:57;;;;;;;15.38;14.07;;;;;;;23.77;67.34;98571.50;5037648;28;20526;-88
2021/07/13 05:02:23;;;;;;;14.02;12.82;;;;;;;23.82;67.29;98579.53;5037155;28;20306;-90
2021/07/13 05:04:51;;;;;;;13.30;12.10;;;;;;;23.96;66.71;98584.72;5037690;28;20232;-91
2021/07/13 05:07:18;;;;;;;13.10;11.98;;;;;;;24.07;66.01;98589.50;5037806;28;20237;-87
2021/07/13 05:09:45;;;;;;;14.05;12.50;;;;;;;24.21;64.77;98578.31;5053766;28;20373;-87
2021/07/13 05:12:11;;;;;;;13.55;12.45;;;;;;;24.31;64.99;98586.09;5036996;28;20233;-89
2021/07/13 05:14:38;;;;;;;13.77;12.68;;;;;;;24.43;64.59;98577.97;5053435;28;20306;-89
2021/07/13 05:17:05;;;;;;;13.98;12.77;;;;;;;24.62;64.03;98584.88;5037381;28;20237;-91
2021/07/13 05:19:33;;;;;;;14.82;13.52;;;;;;;24.66;64.35;98591.28;5053692;28;20234;-92
2021/07/13 05:22:02;;;;;;;14.57;13.27;;;;;;;24.83;64.51;98588.34;5037453;28;20508;-91
2021/07/13 05:24:29;;;;;;;16.13;14.75;;;;;;;25.02;64.51;98598.81;5054196;28;20308;-90
2021/07/13 05:26:55;;;;;;;16.50;15.05;;;;;;;25.11;64.33;98588.56;5037175;28;20238;-91
2021/07/13 05:29:22;;;;;;;15.07;13.77;;;;;;;25.13;65.02;98589.03;5037429;28;20239;-90
2021/07/13 05:31:49;;;;;;;15.07;13.80;;;;;;;25.33;64.27;98588.97;5037083;28;20237;-89
2021/07/13 05:34:17;;;;;;;14.65;13.35;;;;;;;25.42;63.32;98583.38;5036830;28;20643;-87
2021/07/13 05:36:44;;;;;;;14.80;13.57;;;;;;;25.63;63.07;98577.78;5037289;28;20230;-90
2021/07/13 05:39:11;;;;;;;14.68;13.43;;;;;;;25.89;62.60;98577.44;5053716;28;20232;-89
2021/07/13 05:41:38;;;;;;;15.48;14.27;;;;;;;25.82;62.54;98573.31;5053630;28;20338;-89
2021/07/13 05:44:08;;;;;;;14.07;12.85;;;;;;;25.93;62.29;98586.56;5053007;28;20317;-89
2021/07/13 05:46:35;;;;;;;15.00;13.57;;;;;;;26.03;60.96;98561.38;5037167;28;20238;-89
2021/07/13 05:49:02;;;;;;;14.57;13.18;;;;;;;26.19;60.87;98581.47;5036957;28;20324;-90
2021/07/13 05:51:29;;;;;;;14.10;12.77;;;;;;;26.09;61.01;98558.03;5037283;28;20232;-89
2021/07/13 05:53:57;;;;;;;13.80;12.50;;;;;;;26.37;60.45;98566.34;5036545;28;20323;-88
2021/07/13 05:56:24;;;;;;;14.05;12.85;;;;;;;26.41;59.61;98561.72;5053054;28;20315;-90
2021/07/13 05:58:51;;;;;;;14.30;13.02;;;;;;;26.37;59.98;98558.09;5037510;28;20523;-86
2021/07/13 06:01:18;;;;;;;15.52;14.02;;;;;;;26.48;59.62;98570.19;5056233;28;20516;-89
2021/07/13 06:03:45;;;;;;;14.40;13.30;;;;;;;26.50;59.43;98559.63;5055454;28;20222;-88
2021/07/13 06:06:12;;;;;;;15.02;13.63;;;;;;;26.56;59.33;98562.94;5021995;28;20292;-89
2021/07/13 06:08:38;;;;;;;14.27;13.00;;;;;;;26.80;58.71;98573.81;5038653;28;20240;-89
2021/07/13 06:11:06;;;;;;;13.35;12.32;;;;;;;26.99;58.28;98589.66;5055161;28;20244;-88
2021/07/13 06:13:32;;;;;;;14.32;12.95;;;;;;;27.05;57.82;98591.81;5038466;28;20222;-90
2021/07/13 06:15:59;;;;;;;14.70;13.50;;;;;;;27.24;56.85;98577.34;5038767;28;20232;-90
2021/07/13 06:18:26;;;;;;;13.48;12.38;;;;;;;27.41;56.28;98573.44;5039314;28;20319;-89
2021/07/13 06:20:53;;;;;;;13.93;12.80;;;;;;;27.33;56.06;98564.22;5056524;28;20670;-89
2021/07/13 06:23:20;;;;;;;14.50;13.40;;;;;;;27.49;56.13;98553.22;5040232;28;20244;-86
2021/07/13 06:25:46;;;;;;;13.50;12.40;;;;;;;27.67;55.61;98546.19;5056423;28;20247;-88
2021/07/13 06:28:13;;;;;;;13.77;12.65;;;;;;;27.69;55.32;98538.38;5039470;28;20312;-88
2021/07/13 06:30:40;;;;;;;13.80;12.70;;;;;;;27.95;55.11;98551.53;5056978;28;20226;-89
2021/07/13 06:33:07;;;;;;;13.32;12.32;;;;;;;27.97;54.85;98535.47;5040346;28;20576;-90
2021/07/13 06:35:34;;;;;;;13.20;12.00;;;;;;;28.02;53.69;98527.72;5039930;28;20316;-89
2021/07/13 06:38:02;;;;;;;13.32;12.13;;;;;;;28.09;54.35;98526.28;5039374;28;20221;-87
2021/07/13 06:40:30;;;;;;;12.98;11.68;;;;;;;28.25;53.80;98524.28;5056601;28;20231;-88
2021/07/13 06:42:56;;;;;;;13.18;12.00;;;;;;;28.45;53.39;98532.19;5055013;28;20539;-90
2021/07/13 06:45:23;;;;;;;11.63;10.77;;;;;;;28.62;52.77;98543.88;5038198;28;20307;-90
2021/07/13 06:47:54;;;;;;;13.13;11.90;;;;;;;28.58;52.36;98532.00;5038522;28;20248;-84
2021/07/13 06:50:23;;;;;;;12.88;11.85;;;;;;;28.57;52.61;98531.22;5054679;28;20222;-83
2021/07/13 06:52:51;;;;;;;12.25;11.15;;;;;;;28.70;52.66;98540.09;5038481;28;20236;-83
2021/07/13 06:55:18;;;;;;;12.10;11.05;;;;;;;28.94;51.79;98548.06;5038085;28;20229;-84
2021/07/13 06:57:45;;;;;;;11.90;10.90;;;;;;;29.05;51.73;98540.78;5038444;28;20313;-83
2021/07/13 07:00:13;;;;;;;11.35;10.40;;;;;;;29.38;51.13;98556.72;5054582;28;20241;-84
2021/07/13 07:02:40;;;;;;;11.43;10.63;;;;;;;29.40;50.21;98557.16;5071502;28;20229;-83
2021/07/13 07:05:08;;;;;;;11.82;10.80;;;;;;;29.60;50.00;98553.13;5055215;28;20286;-84
2021/07/13 07:07:45;;;;;;;11.50;10.68;;;;;;;29.69;49.86;98559.19;5038819;28;20263;-83
2021/07/13 07:10:13;;;;;;;11.57;10.68;;;;;;;29.75;49.47;98548.63;5054595;28;20312;-84
2021/07/13 07:12:40;;;;;;;11.85;10.80;;;;;;;29.69;49.65;98528.81;5039013;28;20259;-84
2021/07/13 07:15:08;;;;;;;10.95;10.05;;;;;;;29.93;49.32;98527.63;5055020;28;20225;-83
2021/07/13 07:17:43;;;;;;;12.07;10.90;;;;;;;30.12;48.82;98529.44;5071907;28;20742;-84
2021/07/13 07:20:10;;;;;;;11.07;10.18;;;;;;;30.24;48.53;98518.13;5022003;28;20228;-83
2021/07/13 07:22:37;;;;;;;11.80;10.70;;;;;;;30.32;48.28;98519.84;5055311;28;20532;-84
2021/07/13 07:25:05;;;;;;;11.80;10.88;;;;;;;30.47;47.83;98515.31;5054716;28;20255;-84
2021/07/13 07:27:31;;;;;;;12.02;10.93;;;;;;;30.47;47.53;98520.84;5055133;28;20295;-83
2021/07/13 07:29:58;;;;;;;11.48;10.57;;;;;;;30.56;47.20;98524.84;5054874;28;20519;-84
2021/07/13 07:32:25;;;;;;;11.50;10.38;;;;;;;30.69;47.08;98525.41;5038034;28;20294;-84
2021/07/13 07:34:52;;;;;;;11.98;10.88;;;;;;;30.62;47.13;98514.25;5054721;28;20231;-84
2021/07/13 07:37:19;;;;;;;11.85;10.73;;;;;;;30.63;47.15;98510.31;5038291;28;20230;-84
2021/07/13 07:39:46;;;;;;;11.50;10.52;;;;;;;30.49;47.14;98501.88;5038337;28;20551;-83
2021/07/13 07:42:12;;;;;;;11.10;10.27;;;;;;;30.62;47.09;98494.91;5054420;28;20581;-84
2021/07/13 07:44:39;;;;;;;11.32;10.43;;;;;;;30.68;46.94;98498.94;5037917;28;20233;-84
2021/07/13 07:47:06;;;;;;;11.20;10.20;;;;;;;31.05;46.50;98501.66;5038135;28;20232;-84
2021/07/13 07:49:33;;;;;;;11.63;10.73;;;;;;;31.00;46.01;98504.75;5053512;28;20232;-84
2021/07/13 07:52:00;;;;;;;11.57;10.57;;;;;;;31.14;45.42;98504.91;5053495;28;20257;-84
2021/07/13 07:54:27;;;;;;;10.95;10.02;;;;;;;31.21;45.83;98493.91;5037053;28;20229;-84
2021/07/13 07:56:57;;;;;;;10.70;9.80;;;;;;;31.42;45.22;98507.91;5038306;28;20257;-83
2021/07/13 07:59:24;;;;;;;12.15;10.95;;;;;;;31.52;44.66;98495.31;5054368;28;20252;-83
2021/07/13 08:01:51;;;;;;;11.10;9.98;;;;;;;31.61;44.69;98497.75;5037932;28;20637;-84
2021/07/13 08:04:18;;;;;;;11.23;10.10;;;;;;;31.57;44.97;98491.41;5020832;28;20648;-83
2021/07/13 08:06:45;;;;;;;11.00;10.10;;;;;;;31.67;44.97;98490.69;5054275;28;20313;-84
2021/07/13 08:09:13;;;;;;;10.50;9.48;;;;;;;31.83;44.49;98494.72;5038134;28;20229;-83
2021/07/13 08:11:40;;;;;;;11.18;9.95;;;;;;;31.82;44.40;98490.38;5054096;28;20230;-84
2021/07/13 08:14:07;;;;;;;10.85;9.77;;;;;;;31.78;44.07;98497.88;5051497;28;20222;-84
2021/07/13 08:16:38;;;;;;;10.52;9.52;;;;;;;31.79;43.92;98490.34;5069433;28;20279;-83
2021/07/13 08:19:06;;;;;;;10.30;9.50;;;;;;;31.85;43.82;98483.28;5037295;28;20588;-84
2021/07/13 08:21:36;;;;;;;10.23;9.27;;;;;;;31.97;43.92;98485.69;5053272;28;20233;-84
2021/07/13 08:24:03;;;;;;;10.13;9.18;;;;;;;31.75;44.33;98482.03;5053056;28;20221;-84
2021/07/13 08:26:30;;;;;;;10.30;9.50;;;;;;;31.85;44.06;98483.28;5020630;28;20559;-84
2021/07/13 08:28:56;;;;;;;10.57;9.68;;;;;;;31.75;43.86;98482.03;5037236;28;20313;-83
2021/07/13 08:31:24;;;;;;;10.68;9.75;;;;;;;31.64;44.33;98485.91;5053263;28;20221;-84
2021/07/13 08:33:51;;;;;;;10.85;10.02;;;;;;;31.71;44.19;98495.06;5037315;28;20225;-84
2021/07/13 08:36:18;;;;;;;10.43;9.55;;;;;;;31.91;44.06;98484.50;5052871;28;20232;-85
2021/07/13 08:38:45;;;;;;;10.23;9.23;;;;;;;32.05;43.59;98479.03;5036808;28;20634;-84
2021/07/13 08:41:12;;;;;;;9.52;8.73;;;;;;;32.04;43.54;98479.41;5036839;28;20232;-84
2021/07/13 08:43:40;;;;;;;10.40;9.60;;;;;;;32.25;44.29;98483.06;5054153;28;20734;-84
2021/07/13 08:46:06;;;;;;;9.68;8.82;;;;;;;32.36;43.52;98485.09;5036047;28;20229;-84
2021/07/13 08:48:39;;;;;;;11.73;9.55;;;;;;;32.38;42.69;98477.97;5036863;28;20221;-85
2021/07/13 08:51:06;;;;;;;10.13;9.23;;;;;;;32.57;42.25;98474.81;5053527;28;20236;-85
2021/07/13 08:53:33;;;;;;;10.23;9.13;;;;;;;32.49;42.13;98470.47;5036633;28;20317;-85
2021/07/13 08:56:00;;;;;;;9.80;9.00;;;;;;;32.51;41.52;98467.31;5036618;28;20221;-85
2021/07/13 08:58:28;;;;;;;9.18;8.38;;;;;;;32.53;41.71;98470.47;5070112;28;20665;-84
2021/07/13 09:00:56;;;;;;;12.30;9.00;;;;;;;32.71;42.01;98471.31;5053574;28;20272;-84
2021/07/13 09:03:30;;;;;;;8.75;8.15;;;;;;;32.86;40.96;98477.66;5037894;28;20279;-84
2021/07/13 09:05:59;;;;;;;9.98;8.27;;;;;;;32.94;40.82;98473.75;5053646;28;20236;-85
2021/07/13 09:08:31;;;;;;;8.65;8.00;;;;;;;33.05;40.85;98468.97;5037012;28;20888;-85
2021/07/13 09:11:01;;;;;;;9.30;8.10;;;;;;;32.90;40.90;98472.91;5037104;28;20240;-85
2021/07/13 09:13:30;;;;;;;9.07;8.38;;;;;;;33.07;40.81;98463.81;5053406;28;20225;-85
2021/07/13 09:15:58;;;;;;;8.80;8.10;;;;;;;33.21;40.89;98443.63;5069534;28;20531;-84
2021/07/13 09:18:31;;;;;;;8.65;8.05;;;;;;;33.52;40.30;98437.22;5053196;28;20225;-84
2021/07/13 09:21:09;;;;;;;9.23;8.45;;;;;;;33.54;40.33;98446.75;5036979;28;20217;-85
2021/07/13 09:24:05;;;;;;;9.50;8.43;;;;;;;33.49;39.89;98444.38;5053280;28;20262;-85
2021/07/13 09:26:36;;;;;;;9.57;8.60;;;;;;;33.48;39.75;98433.66;5086301;28;20501;-85
2021/07/13 09:29:03;;;;;;;8.30;7.55;;;;;;;33.52;39.78;98426.91;5083518;28;20540;-85
2021/07/13 09:31:30;;;;;;;8.85;8.05;;;;;;;33.75;39.30;98429.22;5052563;28;20226;-84
2021/07/13 09:33:57;;;;;;;8.45;7.72;;;;;;;33.78;38.96;98416.53;5056733;28;20548;-84
2021/07/13 09:36:24;;;;;;;8.02;7.32;;;;;;;33.82;38.37;98429.22;5039846;28;20229;-84
2021/07/13 09:38:55;;;;;;;8.85;7.95;;;;;;;33.91;38.50;98424.03;5056807;28;20236;-84
2021/07/13 09:41:28;;;;;;;9.20;8.15;;;;;;;34.17;37.47;98422.72;5056972;28;20236;-84
2021/07/13 09:44:10;;;;;;;8.45;7.43;;;;;;;34.44;37.03;98414.59;5024099;28;20257;-84
2021/07/13 09:46:45;;;;;;;7.70;7.10;;;;;;;34.51;36.30;98403.44;5055645;28;20225;-84
2021/07/13 09:49:14;;;;;;;9.10;7.43;;;;;;;34.51;36.63;98397.91;5040654;28;20312;-84
2021/07/13 09:52:03;;;;;;;10.30;7.80;;;;;;;34.51;36.43;98392.34;5039082;28;20317;-85
2021/07/13 09:54:31;;;;;;;8.32;7.53;;;;;;;34.57;36.24;98389.91;5056038;28;20249;-85
2021/07/13 09:56:59;;;;;;;8.05;7.13;;;;;;;34.65;36.47;98389.44;5056570;28;20628;-84
2021/07/13 09:59:26;;;;;;;9.40;7.25;;;;;;;34.81;35.17;98372.25;5056441;28;20236;-85
2021/07/13 10:01:53;;;;;;;7.03;6.30;;;;;;;35.09;33.50;98371.97;5039979;28;20346;-84
2021/07/13 10:04:21;;;;;;;8.73;7.68;;;;;;;35.26;32.51;98362.69;5039387;28;20230;-84
2021/07/13 10:06:49;;;;;;;11.85;7.70;;;;;;;35.80;31.85;98376.00;5040046;28;20280;-84
2021/07/13 10:09:20;;;;;;;8.65;7.30;;;;;;;36.21;32.12;98387.03;5039335;28;20238;-84
2021/07/13 10:11:47;;;;;;;7.93;6.90;;;;;;;36.79;30.11;98385.75;5056351;28;20253;-84
2021/07/13 10:14:14;;;;;;;9.95;6.50;;;;;;;37.05;28.99;98370.91;5039299;28;20229;-86
2021/07/13 10:16:41;;;;;;;8.43;6.35;;;;;;;37.59;28.60;98371.53;5039783;28;20229;-91
2021/07/13 10:19:08;;;;;;;7.85;6.63;;;;;;;37.52;27.64;98374.44;5040233;28;20514;-89
2021/07/13 10:21:37;;;;;;;8.48;6.50;;;;;;;37.85;27.56;98378.97;5056441;28;20233;-90
2021/07/13 10:24:05;;;;;;;7.47;6.68;;;;;;;38.16;27.38;98373.94;5056243;28;20261;-90
2021/07/13 10:26:45;;;;;;;12.05;6.15;;;;;;;38.28;27.11;98376.03;5056291;28;20225;-88
2021/07/13 10:29:31;;;;;;;8.23;6.47;;;;;;;38.70;27.01;98362.28;5036651;28;20229;-91
2021/07/13 10:31:59;;;;;;;10.15;6.40;;;;;;;38.48;27.20;98355.63;5036300;28;20640;-91
2021/07/13 10:34:51;;;;;;;8.70;6.35;;;;;;;38.56;27.10;98355.03;5052405;28;20238;-87
2021/07/13 10:37:41;;;;;;;8.48;6.40;;;;;;;38.64;26.35;98341.63;5060368;28;20272;-91
2021/07/13 10:40:14;;;;;;;10.13;5.78;;;;;;;38.38;26.72;98346.25;5055798;28;20312;-89
2021/07/13 10:42:41;;;;;;;7.43;5.63;;;;;;;38.21;26.16;98334.28;5056403;28;20509;-91
2021/07/13 10:45:26;;;;;;;10.60;5.13;;;;;;;38.23;24.18;98339.41;5055330;28;20233;-91
2021/07/13 10:48:01;;;;;;;11.13;5.38;;;;;;;38.40;23.72;98340.22;5055916;28;20536;-92
2021/07/13 10:50:28;;;;;;;12.02;5.03;;;;;;;38.44;22.67;98324.16;5056057;28;20252;-91
2021/07/13 10:53:05;;;;;;;7.30;4.78;;;;;;;38.44;22.59;98324.94;5057217;28;20234;-92
2021/07/13 10:55:31;;;;;;;13.75;5.15;;;;;;;38.58;22.28;98315.41;5039201;28;20237;-91
2021/07/13 10:58:11;;;;;;;9.05;4.78;;;;;;;38.69;22.56;98325.09;5056242;28;20229;-90
2021/07/13 11:00:47;;;;;;;7.85;5.28;;;;;;;38.73;22.68;98323.00;5069395;28;20236;-90
2021/07/13 11:03:29;;;;;;;10.27;4.75;;;;;;;39.19;22.69;98330.19;5038353;28;20225;-91
2021/07/13 11:06:00;;;;;;;7.55;4.70;;;;;;;39.40;22.27;98316.84;5055439;28;20308;-92
2021/07/13 11:08:46;;;;;;;8.25;4.60;;;;;;;39.38;22.75;98322.91;5038874;28;20225;-92
2021/07/13 11:11:16;;;;;;;7.95;5.00;;;;;;;39.38;22.81;98339.72;5055891;28;20526;-92
2021/07/13 11:13:46;;;;;;;9.05;5.28;;;;;;;38.93;23.32;98328.50;5055489;28;20222;-88
2021/07/13 11:16:14;;;;;;;9.15;5.22;;;;;;;39.06;23.77;98337.75;5054943;28;20222;-90
2021/07/13 11:18:42;;;;;;;8.57;5.40;;;;;;;39.27;24.12;98338.41;5039175;28;20241;-91
2021/07/13 11:21:28;;;;;;;9.30;5.00;;;;;;;39.32;24.14;98344.28;5056319;28;20333;-90
2021/07/13 11:24:19;;;;;;;6.90;5.57;;;;;;;39.10;24.63;98351.66;5056477;28;20237;-92
2021/07/13 11:26:49;;;;;;;10.63;5.28;;;;;;;38.89;25.05;98344.63;5049968;28;20312;-91
2021/07/13 11:29:25;;;;;;;7.38;5.20;;;;;;;38.76;25.02;98350.13;5038947;28;20343;-89
2021/07/13 11:31:54;;;;;;;8.23;5.65;;;;;;;38.72;25.09;98343.03;5022600;28;20236;-90